Time;durP1;ratioP1;P1;durP2;ratioP2;P2;SDS_P1;SDS_P2;PMS_P1;PMS_P2;Temp;Humidity;BMP_temperature;BMP_pressure;BME280_temperature;BME280_humidity;BME280_pressure;Samples;Min_cycle;Max_cycle;Signal;HPM_P1;HPM_P2
2024/01/13 00:02:22;;;;;;;6.43;4.93;;;1.60;70.00;;;;;;5097448;28;20016;-73
2024/01/13 00:04:48;;;;;;;6.63;5.20;;;1.50;69.90;;;;;;5103500;28;20400;-73
2024/01/13 00:07:13;;;;;;;7.35;5.47;;;1.50;69.90;;;;;;5116651;28;20050;-71
2024/01/13 00:09:39;;;;;;;7.15;5.32;;;1.50;69.80;;;;;;5116388;28;20370;-73
2024/01/13 00:12:05;;;;;;;6.07;4.93;;;1.50;69.80;;;;;;5117208;28;20373;-73
2024/01/13 00:14:31;;;;;;;6.65;5.43;;;1.50;69.80;;;;;;5116464;28;20024;-72
2024/01/13 00:16:57;;;;;;;7.43;5.28;;;1.50;69.80;;;;;;5116272;28;20114;-72
2024/01/13 00:19:23;;;;;;;7.05;4.88;;;1.50;69.80;;;;;;5116178;28;20031;-73
2024/01/13 00:21:48;;;;;;;6.72;5.20;;;1.50;69.70;;;;;;5114982;28;20026;-72
2024/01/13 00:24:14;;;;;;;6.28;4.60;;;1.50;69.80;;;;;;5115391;28;20110;-72
2024/01/13 00:26:40;;;;;;;6.50;4.97;;;1.50;69.70;;;;;;5116532;28;20030;-72
2024/01/13 00:29:06;;;;;;;6.93;4.85;;;1.50;69.70;;;;;;5116266;28;20453;-73
2024/01/13 00:31:32;;;;;;;8.85;5.88;;;1.50;69.70;;;;;;5116336;28;20030;-73
2024/01/13 00:33:57;;;;;;;7.10;4.75;;;1.50;69.60;;;;;;5115740;28;20503;-73
2024/01/13 00:36:23;;;;;;;8.18;5.20;;;1.50;69.60;;;;;;5114453;28;20032;-72
2024/01/13 00:38:49;;;;;;;6.30;4.97;;;1.40;69.50;;;;;;5114333;28;20067;-72
2024/01/13 00:41:14;;;;;;;6.68;5.20;;;1.40;69.50;;;;;;5115603;28;20023;-71
2024/01/13 00:43:40;;;;;;;7.70;5.38;;;1.40;69.50;;;;;;5115731;28;20036;-72
2024/01/13 00:46:06;;;;;;;7.13;5.03;;;1.40;69.50;;;;;;5115324;28;20046;-72
2024/01/13 00:48:31;;;;;;;7.68;5.10;;;1.40;69.50;;;;;;5113922;28;20023;-73
2024/01/13 00:50:57;;;;;;;6.65;5.18;;;1.40;69.40;;;;;;5114481;28;20031;-73
2024/01/13 00:53:23;;;;;;;6.32;5.18;;;1.40;69.40;;;;;;5114829;28;20030;-73
2024/01/13 00:55:49;;;;;;;6.95;5.45;;;1.40;69.40;;;;;;5114932;28;20030;-72
2024/01/13 00:58:16;;;;;;;7.38;5.38;;;1.40;69.40;;;;;;5114367;28;20031;-74
2024/01/13 01:00:41;;;;;;;7.50;5.43;;;1.40;69.40;;;;;;5114980;28;20035;-72
2024/01/13 01:03:07;;;;;;;8.10;5.35;;;1.40;69.30;;;;;;5115201;28;20427;-73
2024/01/13 01:05:32;;;;;;;6.13;4.95;;;1.40;69.30;;;;;;5112048;28;20044;-72
2024/01/13 01:07:58;;;;;;;7.22;5.30;;;1.40;69.30;;;;;;5095097;28;20032;-73
2024/01/13 01:10:24;;;;;;;6.85;5.25;;;1.40;69.30;;;;;;5094960;28;20028;-72
2024/01/13 01:12:49;;;;;;;6.95;5.22;;;1.30;69.30;;;;;;5095019;28;20126;-71
2024/01/13 01:15:15;;;;;;;6.85;5.50;;;1.30;69.30;;;;;;5095132;28;20031;-73
2024/01/13 01:17:41;;;;;;;7.05;5.15;;;1.40;69.30;;;;;;5113373;28;20470;-73
2024/01/13 01:20:07;;;;;;;6.93;5.38;;;1.40;69.30;;;;;;5112482;28;20085;-72
2024/01/13 01:22:32;;;;;;;7.13;5.03;;;1.30;69.20;;;;;;5104257;28;20072;-72
2024/01/13 01:24:58;;;;;;;6.90;4.80;;;1.30;69.20;;;;;;5114709;28;20023;-72
2024/01/13 01:27:23;;;;;;;6.65;4.80;;;1.30;69.20;;;;;;5112620;28;20169;-72
2024/01/13 01:29:49;;;;;;;5.55;4.72;;;1.30;69.20;;;;;;5114345;28;20028;-73
2024/01/13 01:32:15;;;;;;;5.70;4.72;;;1.30;69.10;;;;;;5113184;28;20054;-73
2024/01/13 01:34:40;;;;;;;6.60;4.93;;;1.30;69.20;;;;;;5114708;28;20100;-72
2024/01/13 01:37:06;;;;;;;5.50;4.68;;;1.30;69.10;;;;;;5098459;28;20025;-72
2024/01/13 01:39:32;;;;;;;6.63;5.50;;;1.20;69.10;;;;;;5095400;28;20043;-72
2024/01/13 01:41:57;;;;;;;6.15;4.88;;;1.30;69.20;;;;;;5094215;28;20033;-73
2024/01/13 01:44:23;;;;;;;6.90;4.95;;;1.30;69.10;;;;;;5108686;28;20038;-73
2024/01/13 01:46:51;;;;;;;6.90;5.35;;;1.30;69.10;;;;;;5097625;28;20063;-73
2024/01/13 01:49:18;;;;;;;11.60;5.03;;;1.20;69.10;;;;;;5095181;28;20028;-72
2024/01/13 01:51:44;;;;;;;7.57;5.10;;;1.30;69.10;;;;;;5094235;28;20028;-72
2024/01/13 01:54:10;;;;;;;7.55;5.55;;;1.20;69.00;;;;;;5092740;28;20032;-72
2024/01/13 01:56:37;;;;;;;6.28;4.63;;;1.20;69.00;;;;;;5105894;28;20046;-72
2024/01/13 01:59:03;;;;;;;4.93;4.40;;;1.20;69.00;;;;;;5112078;28;20107;-73
2024/01/13 02:01:30;;;;;;;7.50;5.28;;;1.20;69.00;;;;;;5114257;28;20020;-72
2024/01/13 02:03:57;;;;;;;6.90;5.20;;;1.20;69.00;;;;;;5110167;28;20034;-72
2024/01/13 02:06:23;;;;;;;6.18;5.00;;;1.20;69.00;;;;;;5109859;28;20048;-71
2024/01/13 02:08:50;;;;;;;6.20;4.70;;;1.20;69.00;;;;;;5114492;28;20027;-72
2024/01/13 02:11:16;;;;;;;5.18;4.28;;;1.20;69.00;;;;;;5113073;28;20019;-73
2024/01/13 02:13:46;;;;;;;7.28;5.47;;;1.20;69.00;;;;;;5113982;28;20034;-72
2024/01/13 02:16:12;;;;;;;7.20;5.07;;;1.20;69.00;;;;;;5112509;28;20031;-72
2024/01/13 02:18:38;;;;;;;6.15;4.93;;;1.20;69.00;;;;;;5113841;28;20469;-73
2024/01/13 02:21:04;;;;;;;5.90;4.90;;;1.20;68.90;;;;;;5114574;28;20027;-74
2024/01/13 02:23:30;;;;;;;7.10;5.13;;;1.20;69.00;;;;;;5112980;28;20488;-73
2024/01/13 02:25:56;;;;;;;6.57;5.00;;;1.20;69.00;;;;;;5113684;28;20034;-72
2024/01/13 02:28:22;;;;;;;6.18;4.90;;;1.20;69.00;;;;;;5119068;28;20377;-71
2024/01/13 02:30:47;;;;;;;7.15;4.80;;;1.20;69.00;;;;;;5118713;27;20028;-72
2024/01/13 02:33:13;;;;;;;5.95;4.68;;;1.20;68.90;;;;;;5119706;28;20410;-72
2024/01/13 02:35:39;;;;;;;6.28;4.55;;;1.20;68.90;;;;;;5120555;28;20389;-72
2024/01/13 02:38:04;;;;;;;5.90;4.70;;;1.20;69.00;;;;;;5120983;28;20023;-72
2024/01/13 02:40:30;;;;;;;5.28;4.22;;;1.20;68.90;;;;;;5120907;27;20458;-72
2024/01/13 02:42:55;;;;;;;5.63;4.60;;;1.20;68.90;;;;;;5119022;28;20465;-73
2024/01/13 02:45:21;;;;;;;6.63;5.00;;;1.20;68.90;;;;;;5120288;27;20134;-72
2024/01/13 02:48:04;;;;;;;6.10;4.70;;;1.20;68.90;;;;;;5119521;28;20077;-72
2024/01/13 02:50:30;;;;;;;5.25;4.32;;;1.20;68.90;;;;;;5119829;28;20035;-72
2024/01/13 02:52:56;;;;;;;5.55;4.78;;;1.20;68.90;;;;;;5120615;28;20027;-72
2024/01/13 02:55:21;;;;;;;5.28;4.47;;;1.10;68.80;;;;;;5120330;28;20027;-73
2024/01/13 02:57:47;;;;;;;5.50;4.53;;;1.10;68.90;;;;;;5120124;28;20108;-74
2024/01/13 03:00:13;;;;;;;5.95;4.60;;;1.10;68.90;;;;;;5119014;28;20038;-73
2024/01/13 03:02:39;;;;;;;5.45;4.35;;;1.20;69.00;;;;;;5120159;27;20059;-73
2024/01/13 03:05:09;;;;;;;6.18;4.82;;;1.10;68.90;;;;;;5119375;28;20051;-72
2024/01/13 03:07:34;;;;;;;5.00;4.20;;;1.10;69.00;;;;;;5100939;28;20038;-72
2024/01/13 03:10:00;;;;;;;6.05;4.18;;;1.10;69.00;;;;;;5099092;28;20032;-73
2024/01/13 03:12:36;;;;;;;5.72;4.25;;;1.10;68.90;;;;;;5099006;28;20028;-72
2024/01/13 03:15:02;;;;;;;5.72;4.28;;;1.10;68.90;;;;;;5118512;28;20032;-73
2024/01/13 03:17:28;;;;;;;5.32;4.50;;;1.10;68.90;;;;;;5118984;28;20081;-72
2024/01/13 03:19:53;;;;;;;5.03;4.20;;;1.10;69.00;;;;;;5117171;28;20130;-75
2024/01/13 03:22:19;;;;;;;5.05;4.03;;;1.10;68.90;;;;;;5111083;28;20127;-74
2024/01/13 03:24:45;;;;;;;5.78;4.15;;;1.10;68.90;;;;;;5115571;27;20028;-72
2024/01/13 03:27:10;;;;;;;5.88;4.32;;;1.10;68.90;;;;;;5118644;27;20495;-72
2024/01/13 03:29:36;;;;;;;4.78;4.15;;;1.10;69.00;;;;;;5114721;28;20462;-73
2024/01/13 03:32:01;;;;;;;4.57;3.97;;;1.10;69.00;;;;;;5100693;27;20107;-73
2024/01/13 03:34:27;;;;;;;5.70;4.13;;;1.10;69.00;;;;;;5112735;28;20129;-73
2024/01/13 03:36:53;;;;;;;5.47;4.57;;;1.10;69.00;;;;;;5118391;28;20081;-72
2024/01/13 03:39:21;;;;;;;6.80;4.50;;;1.10;69.00;;;;;;5102411;27;20067;-73
2024/01/13 03:41:49;;;;;;;5.25;4.13;;;1.10;69.00;;;;;;5096070;28;20028;-74
2024/01/13 03:44:15;;;;;;;4.57;4.00;;;1.10;69.00;;;;;;5108508;28;20165;-72
2024/01/13 03:46:40;;;;;;;5.05;4.45;;;1.10;69.00;;;;;;5102204;28;20475;-72
2024/01/13 03:49:06;;;;;;;5.22;4.15;;;1.10;69.00;;;;;;5109951;28;20489;-72
2024/01/13 03:51:32;;;;;;;4.35;3.95;;;1.10;69.00;;;;;;5115506;28;20035;-73
2024/01/13 03:53:57;;;;;;;4.50;3.70;;;1.10;69.00;;;;;;5103853;28;20032;-72
2024/01/13 03:56:23;;;;;;;4.93;4.43;;;1.10;69.00;;;;;;5107339;28;20462;-74
2024/01/13 03:58:49;;;;;;;4.65;4.07;;;1.10;69.00;;;;;;5100862;28;20040;-72
2024/01/13 04:01:15;;;;;;;5.03;4.05;;;1.10;69.00;;;;;;5101932;28;20031;-72
2024/01/13 04:03:40;;;;;;;4.68;4.20;;;1.10;69.00;;;;;;5108189;28;20420;-74
2024/01/13 04:06:06;;;;;;;4.57;3.97;;;1.10;69.00;;;;;;5129533;27;20045;-74
2024/01/13 04:08:33;;;;;;;5.43;4.03;;;1.10;69.00;;;;;;5136703;27;20110;-74
2024/01/13 04:10:59;;;;;;;4.43;3.80;;;1.10;69.00;;;;;;5105343;27;20031;-73
2024/01/13 04:13:24;;;;;;;5.00;4.07;;;1.10;69.00;;;;;;5104467;27;20028;-73
2024/01/13 04:15:50;;;;;;;4.90;4.10;;;1.10;69.10;;;;;;5126650;27;20085;-73
2024/01/13 04:18:15;;;;;;;4.95;3.80;;;1.10;69.10;;;;;;5132534;27;20033;-75
2024/01/13 04:20:41;;;;;;;5.78;4.07;;;1.10;69.10;;;;;;5119541;27;20078;-72
2024/01/13 04:23:07;;;;;;;5.40;3.80;;;1.10;69.10;;;;;;5117419;27;20106;-72
2024/01/13 04:25:32;;;;;;;4.53;4.03;;;1.00;69.00;;;;;;5124089;27;20030;-72
2024/01/13 04:28:00;;;;;;;5.13;4.20;;;1.10;69.10;;;;;;5106773;28;20118;-73
2024/01/13 04:30:27;;;;;;;4.80;4.00;;;1.10;69.10;;;;;;5121805;27;20027;-72
2024/01/13 04:32:53;;;;;;;4.93;3.80;;;1.10;69.10;;;;;;5130429;27;20034;-71
2024/01/13 04:35:19;;;;;;;4.43;3.97;;;1.10;69.20;;;;;;5109482;28;20481;-73
2024/01/13 04:37:44;;;;;;;4.25;3.85;;;1.10;69.20;;;;;;5124824;27;20031;-73
2024/01/13 04:40:10;;;;;;;4.53;3.75;;;1.00;69.10;;;;;;5105849;28;20090;-72
2024/01/13 04:42:36;;;;;;;5.55;4.43;;;1.00;69.20;;;;;;5111134;27;20492;-72
2024/01/13 04:45:02;;;;;;;4.13;3.65;;;1.00;69.20;;;;;;5129786;27;20027;-71
2024/01/13 04:47:27;;;;;;;4.50;3.60;;;1.10;69.20;;;;;;5113735;28;20074;-72
2024/01/13 04:49:53;;;;;;;4.53;3.83;;;1.00;69.20;;;;;;5118140;27;20042;-73
2024/01/13 04:52:19;;;;;;;4.32;3.90;;;1.00;69.20;;;;;;5104251;27;20035;-71
2024/01/13 04:54:45;;;;;;;4.15;3.63;;;1.00;69.20;;;;;;5110072;28;20023;-72
2024/01/13 04:57:10;;;;;;;4.65;3.72;;;1.00;69.20;;;;;;5122092;27;20027;-73
2024/01/13 04:59:36;;;;;;;4.85;3.97;;;1.00;69.20;;;;;;5112665;28;20081;-73
2024/01/13 05:02:02;;;;;;;4.53;3.92;;;1.00;69.20;;;;;;5116372;27;20035;-71
2024/01/13 05:04:27;;;;;;;4.25;3.85;;;1.00;69.30;;;;;;5115428;27;20034;-73
2024/01/13 05:06:53;;;;;;;4.78;3.70;;;1.00;69.30;;;;;;5108421;28;20058;-71
2024/01/13 05:09:19;;;;;;;4.55;3.95;;;1.00;69.30;;;;;;5122584;27;20034;-73
2024/01/13 05:11:45;;;;;;;5.30;4.13;;;1.00;69.30;;;;;;5101762;28;20073;-72
2024/01/13 05:14:10;;;;;;;4.57;3.85;;;1.00;69.30;;;;;;5125441;27;20058;-72
2024/01/13 05:16:36;;;;;;;4.55;3.90;;;1.00;69.30;;;;;;5120680;27;20062;-72
2024/01/13 05:19:02;;;;;;;4.32;3.70;;;1.00;69.40;;;;;;5128445;27;20027;-73
2024/01/13 05:21:28;;;;;;;4.35;3.75;;;1.00;69.40;;;;;;5115063;27;20222;-73
2024/01/13 05:23:54;;;;;;;4.15;3.70;;;1.00;69.40;;;;;;5122671;27;20139;-72
2024/01/13 05:26:19;;;;;;;4.32;3.80;;;1.00;69.40;;;;;;5115091;27;20042;-72
2024/01/13 05:28:45;;;;;;;4.53;3.85;;;1.00;69.40;;;;;;5130902;27;20026;-72
2024/01/13 05:31:11;;;;;;;4.53;3.90;;;1.00;69.40;;;;;;5119082;27;20032;-72
2024/01/13 05:33:36;;;;;;;4.82;3.92;;;1.00;69.40;;;;;;5122816;27;20034;-73
2024/01/13 05:36:02;;;;;;;4.10;3.53;;;1.00;69.40;;;;;;5131250;27;20453;-72
2024/01/13 05:38:28;;;;;;;3.72;3.38;;;1.00;69.40;;;;;;5105297;28;20051;-74
2024/01/13 05:40:53;;;;;;;4.15;3.75;;;1.00;69.40;;;;;;5126830;27;20035;-73
2024/01/13 05:43:19;;;;;;;3.50;3.20;;;1.00;69.40;;;;;;5116239;27;20044;-72
2024/01/13 05:45:45;;;;;;;4.38;3.72;;;1.00;69.40;;;;;;5105509;27;20027;-72
2024/01/13 05:48:11;;;;;;;4.00;3.60;;;1.00;69.40;;;;;;5117830;27;20031;-73
2024/01/13 05:50:36;;;;;;;4.45;4.00;;;1.00;69.50;;;;;;5103291;27;20031;-72
2024/01/13 05:53:02;;;;;;;4.57;3.63;;;1.00;69.50;;;;;;5104698;27;20051;-72
2024/01/13 05:55:28;;;;;;;5.05;3.78;;;1.00;69.50;;;;;;5104476;27;20019;-73
2024/01/13 05:57:53;;;;;;;4.30;3.53;;;1.00;69.50;;;;;;5129784;27;20055;-71
2024/01/13 06:00:19;;;;;;;4.10;3.70;;;1.00;69.50;;;;;;5116786;27;20489;-72
2024/01/13 06:02:45;;;;;;;4.30;3.88;;;1.00;69.50;;;;;;5120386;27;20398;-72
2024/01/13 06:05:11;;;;;;;4.18;3.78;;;1.00;69.60;;;;;;5123569;27;20477;-73
2024/01/13 06:07:37;;;;;;;5.00;3.95;;;1.00;69.50;;;;;;5129913;27;20107;-73
2024/01/13 06:10:04;;;;;;;4.22;3.47;;;1.00;69.50;;;;;;5103778;27;20019;-73
2024/01/13 06:12:30;;;;;;;4.93;4.05;;;1.00;69.50;;;;;;5134582;27;20044;-74
2024/01/13 06:14:55;;;;;;;3.72;3.42;;;1.00;69.50;;;;;;5097713;27;20023;-74
2024/01/13 06:17:21;;;;;;;4.22;3.70;;;1.00;69.60;;;;;;5128153;27;20118;-72
2024/01/13 06:19:47;;;;;;;3.67;3.38;;;1.00;69.60;;;;;;5115897;27;20035;-74
2024/01/13 06:22:13;;;;;;;4.07;3.55;;;1.00;69.60;;;;;;5133838;27;20076;-72
2024/01/13 06:24:39;;;;;;;4.40;3.33;;;1.00;69.60;;;;;;5127757;27;20035;-72
2024/01/13 06:27:05;;;;;;;4.80;3.60;;;1.10;69.70;;;;;;5119378;28;20023;-71
2024/01/13 06:29:31;;;;;;;3.63;3.33;;;1.00;69.70;;;;;;5125341;28;20027;-73
2024/01/13 06:31:57;;;;;;;4.05;3.65;;;1.00;69.70;;;;;;5109101;28;20063;-71
2024/01/13 06:34:23;;;;;;;4.15;3.20;;;1.10;69.70;;;;;;5128666;27;20479;-74
2024/01/13 06:36:49;;;;;;;3.97;3.35;;;1.10;69.70;;;;;;5129947;28;20027;-73
2024/01/13 06:39:14;;;;;;;4.45;3.72;;;1.10;69.70;;;;;;5114295;28;20473;-72
2024/01/13 06:41:40;;;;;;;3.72;3.33;;;1.10;69.70;;;;;;5112491;28;20027;-72
2024/01/13 06:44:06;;;;;;;3.80;3.40;;;1.10;69.70;;;;;;5099398;28;20023;-73
2024/01/13 06:46:31;;;;;;;4.13;3.65;;;1.10;69.70;;;;;;5131851;27;20027;-72
2024/01/13 06:48:57;;;;;;;4.00;3.60;;;1.10;69.70;;;;;;5119774;28;20031;-72
2024/01/13 06:51:23;;;;;;;4.53;3.72;;;1.10;69.70;;;;;;5108287;27;20027;-72
2024/01/13 06:53:48;;;;;;;3.63;3.28;;;1.10;69.70;;;;;;5131929;27;20103;-73
2024/01/13 06:56:14;;;;;;;3.97;3.58;;;1.10;69.70;;;;;;5114490;28;20114;-73
2024/01/13 06:58:40;;;;;;;3.60;3.30;;;1.20;69.80;;;;;;5126853;28;20027;-73
2024/01/13 07:01:05;;;;;;;5.05;3.53;;;1.20;69.70;;;;;;5126815;27;20019;-72
2024/01/13 07:03:31;;;;;;;3.95;3.28;;;1.20;69.70;;;;;;5114447;28;20035;-73
2024/01/13 07:05:57;;;;;;;3.95;3.45;;;1.20;69.80;;;;;;5113943;28;20079;-76
2024/01/13 07:08:22;;;;;;;4.82;3.50;;;1.20;69.80;;;;;;5101592;28;20176;-75
2024/01/13 07:10:50;;;;;;;3.70;3.40;;;1.20;69.70;;;;;;5109244;28;20056;-74
2024/01/13 07:13:17;;;;;;;3.60;3.30;;;1.20;69.90;;;;;;5118083;27;20028;-75
2024/01/13 07:15:43;;;;;;;3.97;3.58;;;1.30;70.20;;;;;;5110696;28;20015;-75
2024/01/13 07:18:08;;;;;;;3.83;3.42;;;1.30;70.20;;;;;;5107722;28;20026;-73
2024/01/13 07:20:34;;;;;;;3.90;3.50;;;1.40;70.30;;;;;;5119293;27;20114;-72
2024/01/13 07:23:00;;;;;;;4.03;3.33;;;1.40;70.40;;;;;;5132063;27;20062;-72
2024/01/13 07:25:26;;;;;;;4.00;3.60;;;1.40;70.30;;;;;;5117507;27;20537;-73
2024/01/13 07:27:51;;;;;;;3.60;3.30;;;1.40;70.30;;;;;;5128760;27;20020;-70
2024/01/13 07:30:17;;;;;;;3.60;3.30;;;1.50;70.30;;;;;;5119660;28;20035;-71
2024/01/13 07:32:45;;;;;;;4.63;3.70;;;1.50;70.20;;;;;;5118045;28;20034;-76
2024/01/13 07:35:10;;;;;;;3.88;3.28;;;1.50;70.20;;;;;;5123220;27;20039;-75
2024/01/13 07:37:36;;;;;;;3.20;2.90;;;1.50;70.20;;;;;;5124361;28;20034;-77
2024/01/13 07:40:02;;;;;;;3.00;2.80;;;1.60;71.90;;;;;;5117325;27;20401;-74
2024/01/13 07:42:28;;;;;;;3.50;3.15;;;1.70;72.00;;;;;;5133895;27;20458;-73
2024/01/13 07:44:53;;;;;;;3.53;3.17;;;1.80;71.80;;;;;;5130633;27;20035;-73
2024/01/13 07:47:19;;;;;;;3.30;2.95;;;1.80;71.60;;;;;;5123705;27;20035;-71
2024/01/13 07:49:45;;;;;;;4.05;3.50;;;1.90;71.50;;;;;;5137401;27;20358;-72
2024/01/13 07:52:13;;;;;;;4.15;3.10;;;1.90;71.40;;;;;;5119196;27;20123;-73
2024/01/13 07:54:39;;;;;;;3.45;3.15;;;2.00;71.40;;;;;;5117397;27;20034;-73
2024/01/13 07:57:05;;;;;;;4.57;3.88;;;2.00;71.30;;;;;;5136177;27;20045;-75
2024/01/13 07:59:30;;;;;;;3.47;3.17;;;2.00;71.30;;;;;;5118736;27;20035;-73
2024/01/13 08:01:56;;;;;;;3.35;3.05;;;2.00;71.30;;;;;;5137271;27;20102;-72
2024/01/13 08:04:21;;;;;;;4.57;3.50;;;2.00;71.20;;;;;;5118681;27;20045;-70
2024/01/13 08:06:47;;;;;;;4.13;3.50;;;2.10;71.30;;;;;;5135340;27;20043;-83
2024/01/13 08:09:13;;;;;;;4.68;3.63;;;2.10;71.20;;;;;;5114618;28;20059;-74
2024/01/13 08:11:39;;;;;;;3.70;3.15;;;2.10;71.20;;;;;;5121432;27;20036;-74
2024/01/13 08:14:06;;;;;;;4.10;3.65;;;2.10;71.20;;;;;;5119154;27;20482;-73
2024/01/13 08:16:31;;;;;;;4.18;3.53;;;2.10;71.20;;;;;;5084581;27;20405;-75
2024/01/13 08:18:57;;;;;;;4.32;3.60;;;2.20;71.20;;;;;;5097315;28;20070;-72
2024/01/13 08:21:23;;;;;;;3.92;3.50;;;2.20;71.20;;;;;;5098027;28;20480;-72
2024/01/13 08:23:48;;;;;;;4.35;3.50;;;2.20;71.10;;;;;;5116562;27;20024;-72
2024/01/13 08:26:14;;;;;;;3.63;3.33;;;2.30;71.10;;;;;;5121408;27;20027;-71
2024/01/13 08:28:40;;;;;;;3.78;3.30;;;2.40;71.10;;;;;;5121454;27;20547;-72
2024/01/13 08:31:05;;;;;;;4.25;3.47;;;2.40;71.00;;;;;;5136516;27;20065;-73
2024/01/13 08:33:31;;;;;;;4.75;3.75;;;2.50;70.90;;;;;;5124826;27;20027;-71
2024/01/13 08:35:56;;;;;;;3.67;3.30;;;2.50;70.80;;;;;;5095509;28;20078;-72
2024/01/13 08:38:22;;;;;;;3.45;3.15;;;2.50;70.70;;;;;;5078589;27;20028;-72
2024/01/13 08:40:48;;;;;;;4.43;3.42;;;2.60;70.70;;;;;;5116277;27;20048;-72
2024/01/13 08:43:13;;;;;;;4.30;3.45;;;2.60;70.60;;;;;;5115547;28;20028;-72
2024/01/13 08:45:39;;;;;;;3.72;3.25;;;2.60;70.60;;;;;;5115658;28;20039;-72
2024/01/13 08:48:05;;;;;;;3.92;3.40;;;2.60;70.60;;;;;;5114741;28;20059;-72
2024/01/13 08:50:34;;;;;;;4.38;3.45;;;2.70;70.60;;;;;;5117544;27;20035;-72
2024/01/13 08:52:59;;;;;;;3.90;3.45;;;2.70;70.50;;;;;;5136209;27;20033;-72
2024/01/13 08:55:25;;;;;;;3.45;3.10;;;2.70;70.50;;;;;;5117842;27;20117;-71
2024/01/13 08:57:51;;;;;;;4.03;3.38;;;2.80;70.50;;;;;;5135921;27;20027;-72
2024/01/13 09:00:17;;;;;;;3.83;3.47;;;2.80;70.50;;;;;;5113652;28;20377;-72
2024/01/13 09:02:43;;;;;;;4.07;3.42;;;2.80;70.40;;;;;;5097147;28;20028;-72
2024/01/13 09:05:10;;;;;;;4.82;3.85;;;2.80;70.30;;;;;;5112317;28;20047;-72
2024/01/13 09:07:37;;;;;;;4.50;3.47;;;2.80;70.30;;;;;;5115313;28;20079;-72
2024/01/13 09:10:03;;;;;;;4.72;3.50;;;2.90;70.40;;;;;;5112258;28;20377;-71
2024/01/13 09:12:29;;;;;;;3.55;3.20;;;2.90;70.30;;;;;;5113187;28;20109;-72
2024/01/13 09:14:55;;;;;;;3.60;3.20;;;2.90;70.30;;;;;;5116334;27;20023;-72
2024/01/13 09:17:20;;;;;;;4.22;3.70;;;2.90;70.30;;;;;;5115358;27;20031;-72
2024/01/13 09:19:46;;;;;;;4.00;3.25;;;2.90;70.30;;;;;;5133447;27;20062;-72
2024/01/13 09:22:12;;;;;;;4.05;3.35;;;3.00;70.20;;;;;;5135648;27;20067;-72
2024/01/13 09:24:37;;;;;;;4.43;3.72;;;3.00;70.20;;;;;;5135366;27;20027;-72
2024/01/13 09:27:03;;;;;;;4.38;3.67;;;3.10;70.20;;;;;;5135431;27;20027;-73
2024/01/13 09:29:29;;;;;;;3.90;3.50;;;3.10;70.20;;;;;;5113094;28;20131;-72
2024/01/13 09:31:55;;;;;;;3.60;3.30;;;3.10;70.10;;;;;;5114737;28;20442;-74
2024/01/13 09:34:21;;;;;;;3.92;3.28;;;3.10;70.00;;;;;;5113435;28;20028;-73
2024/01/13 09:36:46;;;;;;;4.07;3.50;;;3.10;70.00;;;;;;5113534;28;20023;-72
2024/01/13 09:39:14;;;;;;;4.20;3.40;;;3.10;70.00;;;;;;5127956;27;20035;-72
2024/01/13 09:41:42;;;;;;;4.38;3.45;;;3.10;70.00;;;;;;5116660;27;20027;-72
2024/01/13 09:44:22;;;;;;;4.00;3.30;;;3.10;70.00;;;;;;5135157;27;20110;-72
2024/01/13 09:46:52;;;;;;;3.40;3.10;;;3.10;70.00;;;;;;5135066;27;20510;-72
2024/01/13 09:49:20;;;;;;;3.97;3.17;;;3.10;70.00;;;;;;5133414;27;20091;-72
2024/01/13 09:51:46;;;;;;;4.07;3.33;;;3.00;70.00;;;;;;5116598;27;20027;-71
2024/01/13 09:54:16;;;;;;;3.75;3.13;;;3.00;70.10;;;;;;5134867;27;20453;-73
2024/01/13 09:56:47;;;;;;;3.30;3.00;;;3.00;70.10;;;;;;5116551;27;20159;-72
2024/01/13 09:59:12;;;;;;;3.70;3.40;;;3.00;70.10;;;;;;5116389;27;20083;-72
2024/01/13 10:01:39;;;;;;;3.72;3.33;;;3.00;70.20;;;;;;5135047;27;20440;-73
2024/01/13 10:04:04;;;;;;;4.03;3.33;;;3.00;70.20;;;;;;5116921;27;20397;-72
2024/01/13 10:06:36;;;;;;;3.78;3.38;;;3.00;70.20;;;;;;5134651;27;20044;-71
2024/01/13 10:09:03;;;;;;;3.70;3.30;;;3.00;70.20;;;;;;5132830;27;20156;-72
2024/01/13 10:11:29;;;;;;;3.95;3.53;;;3.10;70.20;;;;;;5116271;27;20034;-72
2024/01/13 10:14:02;;;;;;;4.20;3.10;;;3.10;70.20;;;;;;5134860;27;20019;-72
2024/01/13 10:16:29;;;;;;;3.65;3.17;;;3.10;70.20;;;;;;5134790;27;20372;-73
2024/01/13 10:18:57;;;;;;;4.13;3.55;;;3.10;70.10;;;;;;5116042;28;20418;-73
2024/01/13 10:21:26;;;;;;;3.53;3.22;;;3.20;70.10;;;;;;5134690;27;20023;-73
2024/01/13 10:23:57;;;;;;;3.50;3.20;;;3.20;70.00;;;;;;5116197;27;20023;-73
2024/01/13 10:26:26;;;;;;;5.70;3.58;;;3.20;70.00;;;;;;5134592;27;20015;-72
2024/01/13 10:28:52;;;;;;;3.28;2.97;;;3.20;70.00;;;;;;5132765;27;20030;-72
2024/01/13 10:31:18;;;;;;;3.50;3.15;;;3.30;70.00;;;;;;5134766;27;20019;-73
2024/01/13 10:33:48;;;;;;;4.00;3.33;;;3.30;70.00;;;;;;5134569;27;20043;-74
2024/01/13 10:36:20;;;;;;;3.63;3.30;;;3.30;70.00;;;;;;5134579;27;20063;-75
2024/01/13 10:38:46;;;;;;;3.30;3.00;;;3.30;70.00;;;;;;5112549;28;20525;-72
2024/01/13 10:41:12;;;;;;;3.20;2.90;;;3.30;69.90;;;;;;5113901;28;20123;-72
2024/01/13 10:43:42;;;;;;;3.22;2.92;;;3.30;69.90;;;;;;5113851;28;20102;-73
2024/01/13 10:46:13;;;;;;;3.72;3.28;;;3.40;69.90;;;;;;5112329;28;20027;-73
2024/01/13 10:48:47;;;;;;;3.17;2.88;;;3.40;70.00;;;;;;5113300;28;20028;-73
2024/01/13 10:51:32;;;;;;;3.42;3.13;;;3.40;69.90;;;;;;5100767;28;20027;-72
2024/01/13 10:54:01;;;;;;;4.00;3.50;;;3.40;70.00;;;;;;5118053;28;20035;-74
2024/01/13 10:56:28;;;;;;;3.47;3.17;;;3.40;69.90;;;;;;5118034;28;20028;-73
2024/01/13 10:58:58;;;;;;;3.40;3.10;;;3.50;70.00;;;;;;5119335;27;20496;-72
2024/01/13 11:01:25;;;;;;;3.38;3.08;;;3.50;69.90;;;;;;5120111;27;20023;-73
2024/01/13 11:03:51;;;;;;;3.55;3.15;;;3.50;69.90;;;;;;5138344;27;20019;-71
2024/01/13 11:06:17;;;;;;;3.78;3.30;;;3.50;69.80;;;;;;5138119;27;20047;-72
2024/01/13 11:08:45;;;;;;;3.80;3.20;;;3.50;69.70;;;;;;5137617;27;20035;-72
2024/01/13 11:11:16;;;;;;;3.67;3.30;;;3.50;69.80;;;;;;5138164;27;20031;-73
2024/01/13 11:13:47;;;;;;;3.25;2.97;;;3.50;69.70;;;;;;5138146;27;20023;-73
2024/01/13 11:16:15;;;;;;;4.32;3.50;;;3.60;69.80;;;;;;5120154;27;20114;-72
2024/01/13 11:18:46;;;;;;;3.63;3.30;;;3.50;69.70;;;;;;5136457;27;20033;-74
2024/01/13 11:21:12;;;;;;;3.55;3.25;;;3.50;69.80;;;;;;5119819;27;20118;-73
2024/01/13 11:23:46;;;;;;;3.50;3.20;;;3.60;69.90;;;;;;5137963;27;20052;-72
2024/01/13 11:26:16;;;;;;;3.45;3.13;;;3.60;69.90;;;;;;5138006;27;20027;-74
2024/01/13 11:28:53;;;;;;;3.60;3.25;;;3.60;70.40;;;;;;5119991;27;20042;-73
2024/01/13 11:31:28;;;;;;;3.92;3.20;;;3.70;69.80;;;;;;5116259;27;20023;-73
2024/01/13 11:33:54;;;;;;;3.90;3.20;;;3.80;69.90;;;;;;5117274;27;20470;-72
2024/01/13 11:36:20;;;;;;;3.15;2.85;;;3.80;69.70;;;;;;5117603;28;20028;-73
2024/01/13 11:38:46;;;;;;;3.42;3.08;;;3.90;69.70;;;;;;5116917;28;20100;-72
2024/01/13 11:41:12;;;;;;;3.60;3.28;;;4.00;69.70;;;;;;5117011;28;20043;-73
2024/01/13 11:43:40;;;;;;;3.33;3.03;;;4.00;69.60;;;;;;5116844;27;20055;-72
2024/01/13 11:46:11;;;;;;;3.10;2.80;;;4.10;69.60;;;;;;5115384;28;20045;-72
2024/01/13 11:48:39;;;;;;;3.67;3.33;;;4.10;69.50;;;;;;5116908;28;20028;-73
2024/01/13 11:51:18;;;;;;;3.58;3.10;;;4.10;69.40;;;;;;5115507;28;20036;-72
2024/01/13 11:53:44;;;;;;;3.83;3.17;;;4.10;69.40;;;;;;5116971;27;20042;-72
2024/01/13 11:56:11;;;;;;;3.40;3.10;;;4.10;69.40;;;;;;5127576;27;20105;-73
2024/01/13 11:58:38;;;;;;;3.47;3.17;;;4.10;69.40;;;;;;5135701;27;20028;-73
2024/01/13 12:01:06;;;;;;;3.40;3.10;;;4.10;69.40;;;;;;5133603;27;20046;-72
2024/01/13 12:03:32;;;;;;;3.40;3.10;;;4.10;69.40;;;;;;5115082;28;20031;-73
2024/01/13 12:05:59;;;;;;;3.70;3.17;;;4.10;69.40;;;;;;5125649;27;20484;-73
2024/01/13 12:08:25;;;;;;;3.20;2.90;;;4.10;69.40;;;;;;5137033;27;20027;-73
2024/01/13 12:10:53;;;;;;;3.45;3.15;;;4.00;69.40;;;;;;5119114;27;20114;-73
2024/01/13 12:13:24;;;;;;;3.20;2.90;;;4.10;69.50;;;;;;5118959;27;20035;-72
2024/01/13 12:15:50;;;;;;;3.50;3.20;;;4.10;69.50;;;;;;5114786;28;20038;-73
2024/01/13 12:18:27;;;;;;;3.92;3.20;;;4.10;69.50;;;;;;5116189;28;20032;-74
2024/01/13 12:21:00;;;;;;;3.30;3.00;;;4.00;69.50;;;;;;5116693;28;20027;-73
2024/01/13 12:23:26;;;;;;;3.60;3.30;;;4.00;69.50;;;;;;5115534;28;20035;-72
2024/01/13 12:25:52;;;;;;;4.00;3.55;;;4.00;69.50;;;;;;5117573;27;20024;-73
2024/01/13 12:28:19;;;;;;;3.63;3.10;;;4.00;69.50;;;;;;5115122;28;20032;-73
2024/01/13 12:30:48;;;;;;;4.97;3.20;;;4.00;69.60;;;;;;5115956;28;20034;-73
2024/01/13 12:33:14;;;;;;;3.35;3.00;;;4.00;69.60;;;;;;5117501;27;20028;-73
2024/01/13 12:35:39;;;;;;;3.40;3.10;;;3.90;69.60;;;;;;5116221;28;20039;-73
2024/01/13 12:38:06;;;;;;;3.67;3.33;;;3.90;69.60;;;;;;5114710;28;20026;-72
2024/01/13 12:40:33;;;;;;;3.30;3.00;;;3.90;69.60;;;;;;5115981;27;20076;-73
2024/01/13 12:42:59;;;;;;;4.47;3.00;;;3.90;69.60;;;;;;5115634;28;20076;-73
2024/01/13 12:45:26;;;;;;;3.50;3.20;;;3.90;69.70;;;;;;5117588;27;20110;-73
2024/01/13 12:48:04;;;;;;;3.75;3.17;;;3.80;69.60;;;;;;5136965;27;20042;-72
2024/01/13 12:50:36;;;;;;;3.25;2.95;;;3.80;69.60;;;;;;5117922;27;20087;-73
2024/01/13 12:53:01;;;;;;;3.38;3.08;;;3.80;69.70;;;;;;5136287;27;20032;-72
2024/01/13 12:55:27;;;;;;;3.80;3.00;;;3.70;69.60;;;;;;5114100;28;20027;-72